sensor_id;sensor_type;location;lat;lon;timestamp;temperature;humidity
13336;DHT22;6737;51.480;11.962;2023-03-01T00:01:12;-1.20;99.90
13336;DHT22;6737;51.480;11.962;2023-03-01T00:03:39;-1.20;99.90
13336;DHT22;6737;51.480;11.962;2023-03-01T00:06:05;-1.20;99.90
13336;DHT22;6737;51.480;11.962;2023-03-01T00:08:33;-1.20;99.90
13336;DHT22;6737;51.480;11.962;2023-03-01T00:13:30;-1.10;99.90
13336;DHT22;6737;51.480;11.962;2023-03-01T00:15:56;-1.10;99.90
13336;DHT22;6737;51.480;11.962;2023-03-01T00:18:22;-1.20;99.90
13336;DHT22;6737;51.480;11.962;2023-03-01T00:20:52;-1.30;99.90
13336;DHT22;6737;51.480;11.962;2023-03-01T00:23:18;-1.40;99.90
13336;DHT22;6737;51.480;11.962;2023-03-01T00:25:44;-1.40;99.90
13336;DHT22;6737;51.480;11.962;2023-03-01T00:28:10;-1.40;99.90
13336;DHT22;6737;51.480;11.962;2023-03-01T00:30:36;-1.40;99.90
13336;DHT22;6737;51.480;11.962;2023-03-01T00:33:02;-1.40;99.90
13336;DHT22;6737;51.480;11.962;2023-03-01T00:35:28;-1.40;99.90
13336;DHT22;6737;51.480;11.962;2023-03-01T00:37:53;-1.50;99.90
13336;DHT22;6737;51.480;11.962;2023-03-01T00:40:24;-1.50;99.90
13336;DHT22;6737;51.480;11.962;2023-03-01T00:42:50;-1.40;99.90
13336;DHT22;6737;51.480;11.962;2023-03-01T00:45:16;-1.40;99.90
13336;DHT22;6737;51.480;11.962;2023-03-01T00:47:42;-1.50;99.90
13336;DHT22;6737;51.480;11.962;2023-03-01T00:50:09;-1.50;99.90
13336;DHT22;6737;51.480;11.962;2023-03-01T00:52:35;-1.50;99.90
13336;DHT22;6737;51.480;11.962;2023-03-01T00:55:01;-1.50;99.90
13336;DHT22;6737;51.480;11.962;2023-03-01T00:57:27;-1.40;99.90
13336;DHT22;6737;51.480;11.962;2023-03-01T00:59:53;-1.40;99.90
13336;DHT22;6737;51.480;11.962;2023-03-01T01:02:19;-1.40;99.90
13336;DHT22;6737;51.480;11.962;2023-03-01T01:04:46;-1.40;99.90
13336;DHT22;6737;51.480;11.962;2023-03-01T01:07:12;-1.40;99.90
13336;DHT22;6737;51.480;11.962;2023-03-01T01:09:38;-1.50;99.90
13336;DHT22;6737;51.480;11.962;2023-03-01T01:12:05;-1.40;99.90
13336;DHT22;6737;51.480;11.962;2023-03-01T01:14:31;-1.40;99.90
13336;DHT22;6737;51.480;11.962;2023-03-01T01:16:57;-1.40;99.90
13336;DHT22;6737;51.480;11.962;2023-03-01T01:19:23;-1.40;99.90
13336;DHT22;6737;51.480;11.962;2023-03-01T01:21:50;-1.50;99.90
13336;DHT22;6737;51.480;11.962;2023-03-01T01:24:16;-1.50;99.90
13336;DHT22;6737;51.480;11.962;2023-03-01T01:26:43;-1.60;99.90
13336;DHT22;6737;51.480;11.962;2023-03-01T01:29:09;-1.50;99.90
13336;DHT22;6737;51.480;11.962;2023-03-01T01:31:36;-1.50;99.90
13336;DHT22;6737;51.480;11.962;2023-03-01T01:34:05;-1.50;99.90
13336;DHT22;6737;51.480;11.962;2023-03-01T01:36:32;-1.70;99.90
13336;DHT22;6737;51.480;11.962;2023-03-01T01:38:58;-1.70;99.90
13336;DHT22;6737;51.480;11.962;2023-03-01T01:41:25;-1.70;99.90
13336;DHT22;6737;51.480;11.962;2023-03-01T01:44:13;-1.70;99.90
13336;DHT22;6737;51.480;11.962;2023-03-01T01:47:00;-1.80;99.90
13336;DHT22;6737;51.480;11.962;2023-03-01T01:49:37;-1.60;99.90
13336;DHT22;6737;51.480;11.962;2023-03-01T01:52:25;-1.60;99.90
13336;DHT22;6737;51.480;11.962;2023-03-01T01:57:39;-1.60;99.90
13336;DHT22;6737;51.480;11.962;2023-03-01T02:00:09;-1.60;99.90
13336;DHT22;6737;51.480;11.962;2023-03-01T02:02:36;-1.60;99.90
13336;DHT22;6737;51.480;11.962;2023-03-01T02:05:11;-1.60;99.90
13336;DHT22;6737;51.480;11.962;2023-03-01T02:07:41;-1.60;99.90
13336;DHT22;6737;51.480;11.962;2023-03-01T02:10:08;-1.70;99.90
13336;DHT22;6737;51.480;11.962;2023-03-01T02:12:36;-1.70;99.90
13336;DHT22;6737;51.480;11.962;2023-03-01T02:15:03;-1.70;99.90
13336;DHT22;6737;51.480;11.962;2023-03-01T02:17:30;-1.70;99.90
13336;DHT22;6737;51.480;11.962;2023-03-01T02:20:22;-1.80;99.90
13336;DHT22;6737;51.480;11.962;2023-03-01T02:22:54;-1.90;99.90
13336;DHT22;6737;51.480;11.962;2023-03-01T02:28:29;-1.80;99.90
13336;DHT22;6737;51.480;11.962;2023-03-01T02:30:55;-1.90;99.90
13336;DHT22;6737;51.480;11.962;2023-03-01T02:33:39;-2.00;99.90
13336;DHT22;6737;51.480;11.962;2023-03-01T02:36:34;-2.00;99.90
13336;DHT22;6737;51.480;11.962;2023-03-01T02:39:03;-2.00;99.90
13336;DHT22;6737;51.480;11.962;2023-03-01T02:41:34;-2.00;99.90
13336;DHT22;6737;51.480;11.962;2023-03-01T02:44:02;-1.90;99.90
13336;DHT22;6737;51.480;11.962;2023-03-01T02:46:28;-1.80;99.90
13336;DHT22;6737;51.480;11.962;2023-03-01T02:48:59;-1.90;99.90
13336;DHT22;6737;51.480;11.962;2023-03-01T02:56:51;-1.90;99.90
13336;DHT22;6737;51.480;11.962;2023-03-01T02:59:20;-2.00;99.90
13336;DHT22;6737;51.480;11.962;2023-03-01T03:01:47;-2.00;99.90
13336;DHT22;6737;51.480;11.962;2023-03-01T03:04:15;-2.00;99.90
13336;DHT22;6737;51.480;11.962;2023-03-01T03:06:48;-2.00;99.90
13336;DHT22;6737;51.480;11.962;2023-03-01T03:09:15;-2.10;99.90
13336;DHT22;6737;51.480;11.962;2023-03-01T03:11:41;-2.10;99.90
13336;DHT22;6737;51.480;11.962;2023-03-01T03:14:09;-2.10;99.90
13336;DHT22;6737;51.480;11.962;2023-03-01T03:16:42;-2.10;99.90
13336;DHT22;6737;51.480;11.962;2023-03-01T03:19:09;-2.10;99.90
13336;DHT22;6737;51.480;11.962;2023-03-01T03:21:35;-2.10;99.90
13336;DHT22;6737;51.480;11.962;2023-03-01T03:24:01;-2.10;99.90
13336;DHT22;6737;51.480;11.962;2023-03-01T03:26:27;-2.20;99.90
13336;DHT22;6737;51.480;11.962;2023-03-01T03:28:53;-2.20;99.90
13336;DHT22;6737;51.480;11.962;2023-03-01T03:31:19;-2.20;99.90
13336;DHT22;6737;51.480;11.962;2023-03-01T03:33:45;-2.20;99.90
13336;DHT22;6737;51.480;11.962;2023-03-01T03:36:19;-2.30;99.90
13336;DHT22;6737;51.480;11.962;2023-03-01T03:38:46;-2.30;99.90
13336;DHT22;6737;51.480;11.962;2023-03-01T03:41:15;-2.30;99.90
13336;DHT22;6737;51.480;11.962;2023-03-01T03:43:43;-2.40;99.90
13336;DHT22;6737;51.480;11.962;2023-03-01T03:46:11;-2.40;99.90
13336;DHT22;6737;51.480;11.962;2023-03-01T03:48:39;-2.30;99.90
13336;DHT22;6737;51.480;11.962;2023-03-01T03:51:06;-2.40;99.90
13336;DHT22;6737;51.480;11.962;2023-03-01T03:53:32;-2.40;99.90
13336;DHT22;6737;51.480;11.962;2023-03-01T03:55:58;-2.30;99.90
13336;DHT22;6737;51.480;11.962;2023-03-01T03:58:25;-2.40;99.90
13336;DHT22;6737;51.480;11.962;2023-03-01T04:00:54;-2.40;99.90
13336;DHT22;6737;51.480;11.962;2023-03-01T04:03:25;-2.40;99.90
13336;DHT22;6737;51.480;11.962;2023-03-01T04:05:51;-2.30;99.90
13336;DHT22;6737;51.480;11.962;2023-03-01T04:08:19;-2.40;99.90
13336;DHT22;6737;51.480;11.962;2023-03-01T04:11:03;-2.40;99.90
13336;DHT22;6737;51.480;11.962;2023-03-01T04:13:50;-2.30;99.90
13336;DHT22;6737;51.480;11.962;2023-03-01T04:16:17;-2.40;99.90
13336;DHT22;6737;51.480;11.962;2023-03-01T04:18:44;-2.40;99.90
13336;DHT22;6737;51.480;11.962;2023-03-01T04:21:10;-2.40;99.90
13336;DHT22;6737;51.480;11.962;2023-03-01T04:23:37;-2.40;99.90
13336;DHT22;6737;51.480;11.962;2023-03-01T04:26:03;-2.40;99.90
13336;DHT22;6737;51.480;11.962;2023-03-01T04:28:34;-2.40;99.90
13336;DHT22;6737;51.480;11.962;2023-03-01T04:31:16;-2.30;99.90
13336;DHT22;6737;51.480;11.962;2023-03-01T04:36:17;-2.40;99.90
13336;DHT22;6737;51.480;11.962;2023-03-01T04:38:44;-2.40;99.90
13336;DHT22;6737;51.480;11.962;2023-03-01T04:41:14;-2.40;99.90
13336;DHT22;6737;51.480;11.962;2023-03-01T04:43:40;-2.40;99.90
13336;DHT22;6737;51.480;11.962;2023-03-01T04:46:09;-2.50;99.90
13336;DHT22;6737;51.480;11.962;2023-03-01T04:48:40;-2.50;99.90
13336;DHT22;6737;51.480;11.962;2023-03-01T04:51:07;-2.50;99.90
13336;DHT22;6737;51.480;11.962;2023-03-01T04:53:34;-2.50;99.90
13336;DHT22;6737;51.480;11.962;2023-03-01T04:56:02;-2.50;99.90
13336;DHT22;6737;51.480;11.962;2023-03-01T04:58:28;-2.50;99.90
13336;DHT22;6737;51.480;11.962;2023-03-01T05:00:55;-2.60;99.90
13336;DHT22;6737;51.480;11.962;2023-03-01T05:03:21;-2.60;99.90
13336;DHT22;6737;51.480;11.962;2023-03-01T05:05:49;-2.50;99.90
13336;DHT22;6737;51.480;11.962;2023-03-01T05:08:15;-2.50;99.90
13336;DHT22;6737;51.480;11.962;2023-03-01T05:10:50;-2.50;99.90
13336;DHT22;6737;51.480;11.962;2023-03-01T05:13:17;-2.60;99.90
13336;DHT22;6737;51.480;11.962;2023-03-01T05:15:49;-2.60;99.90
13336;DHT22;6737;51.480;11.962;2023-03-01T05:18:19;-2.70;99.90
13336;DHT22;6737;51.480;11.962;2023-03-01T05:20:44;-2.60;99.90
13336;DHT22;6737;51.480;11.962;2023-03-01T05:23:10;-2.70;99.90
13336;DHT22;6737;51.480;11.962;2023-03-01T05:25:36;-2.70;99.90
13336;DHT22;6737;51.480;11.962;2023-03-01T05:28:09;-2.80;99.90
13336;DHT22;6737;51.480;11.962;2023-03-01T05:30:36;-2.90;99.90
13336;DHT22;6737;51.480;11.962;2023-03-01T05:33:02;-2.90;99.90
13336;DHT22;6737;51.480;11.962;2023-03-01T05:35:28;-2.80;99.90
13336;DHT22;6737;51.480;11.962;2023-03-01T05:37:55;-2.70;99.90
13336;DHT22;6737;51.480;11.962;2023-03-01T05:40:22;-2.70;99.90
13336;DHT22;6737;51.480;11.962;2023-03-01T05:42:54;-2.60;99.90
13336;DHT22;6737;51.480;11.962;2023-03-01T05:45:21;-2.60;99.90
13336;DHT22;6737;51.480;11.962;2023-03-01T05:47:49;-2.60;99.90
13336;DHT22;6737;51.480;11.962;2023-03-01T05:50:23;-2.70;99.90
13336;DHT22;6737;51.480;11.962;2023-03-01T05:52:59;-2.70;99.90
13336;DHT22;6737;51.480;11.962;2023-03-01T05:55:25;-2.70;99.90
13336;DHT22;6737;51.480;11.962;2023-03-01T05:57:52;-2.70;99.90
13336;DHT22;6737;51.480;11.962;2023-03-01T06:00:20;-2.70;99.90
13336;DHT22;6737;51.480;11.962;2023-03-01T06:02:48;-2.80;99.90
13336;DHT22;6737;51.480;11.962;2023-03-01T06:05:14;-2.80;99.90
13336;DHT22;6737;51.480;11.962;2023-03-01T06:07:40;-2.80;99.90
13336;DHT22;6737;51.480;11.962;2023-03-01T06:10:08;-2.80;99.90
13336;DHT22;6737;51.480;11.962;2023-03-01T06:12:35;-2.90;99.90
13336;DHT22;6737;51.480;11.962;2023-03-01T06:15:02;-2.80;99.90
13336;DHT22;6737;51.480;11.962;2023-03-01T06:17:33;-2.70;99.90
13336;DHT22;6737;51.480;11.962;2023-03-01T06:20:10;-2.70;99.90
13336;DHT22;6737;51.480;11.962;2023-03-01T06:22:37;-2.80;99.90
13336;DHT22;6737;51.480;11.962;2023-03-01T06:25:03;-2.80;99.90
13336;DHT22;6737;51.480;11.962;2023-03-01T06:27:30;-2.80;99.90
13336;DHT22;6737;51.480;11.962;2023-03-01T06:29:55;-2.80;99.90
13336;DHT22;6737;51.480;11.962;2023-03-01T06:32:21;-2.70;99.90
13336;DHT22;6737;51.480;11.962;2023-03-01T06:34:47;-2.70;99.90
13336;DHT22;6737;51.480;11.962;2023-03-01T06:37:12;-2.70;99.90
13336;DHT22;6737;51.480;11.962;2023-03-01T06:39:38;-2.70;99.90
13336;DHT22;6737;51.480;11.962;2023-03-01T06:42:04;-2.70;99.90
13336;DHT22;6737;51.480;11.962;2023-03-01T06:44:30;-2.60;99.90
13336;DHT22;6737;51.480;11.962;2023-03-01T06:46:56;-2.50;99.90
13336;DHT22;6737;51.480;11.962;2023-03-01T06:49:21;-2.50;99.90
13336;DHT22;6737;51.480;11.962;2023-03-01T06:51:47;-2.50;99.90
13336;DHT22;6737;51.480;11.962;2023-03-01T06:54:14;-2.50;99.90
13336;DHT22;6737;51.480;11.962;2023-03-01T06:56:39;-2.50;99.90
13336;DHT22;6737;51.480;11.962;2023-03-01T06:59:05;-2.50;99.90
13336;DHT22;6737;51.480;11.962;2023-03-01T07:01:31;-2.50;99.90
13336;DHT22;6737;51.480;11.962;2023-03-01T07:03:57;-2.50;99.90
13336;DHT22;6737;51.480;11.962;2023-03-01T07:06:23;-2.40;99.90
13336;DHT22;6737;51.480;11.962;2023-03-01T07:08:49;-2.30;99.90
13336;DHT22;6737;51.480;11.962;2023-03-01T07:11:15;-2.10;99.90
13336;DHT22;6737;51.480;11.962;2023-03-01T07:13:41;-2.10;99.90
13336;DHT22;6737;51.480;11.962;2023-03-01T07:16:07;-2.10;99.90
13336;DHT22;6737;51.480;11.962;2023-03-01T07:18:33;-2.10;99.90
13336;DHT22;6737;51.480;11.962;2023-03-01T07:21:05;-2.00;99.90
13336;DHT22;6737;51.480;11.962;2023-03-01T07:23:31;-2.00;99.90
13336;DHT22;6737;51.480;11.962;2023-03-01T07:25:57;-1.90;99.90
13336;DHT22;6737;51.480;11.962;2023-03-01T07:28:23;-1.80;99.90
13336;DHT22;6737;51.480;11.962;2023-03-01T07:30:49;-1.70;99.90
13336;DHT22;6737;51.480;11.962;2023-03-01T07:33:15;-1.50;99.90
13336;DHT22;6737;51.480;11.962;2023-03-01T07:35:41;-1.40;99.90
13336;DHT22;6737;51.480;11.962;2023-03-01T07:38:06;-1.30;99.90
13336;DHT22;6737;51.480;11.962;2023-03-01T07:40:32;-1.30;99.90
13336;DHT22;6737;51.480;11.962;2023-03-01T07:42:59;-1.20;99.90
13336;DHT22;6737;51.480;11.962;2023-03-01T07:45:27;-1.20;99.90
13336;DHT22;6737;51.480;11.962;2023-03-01T07:47:55;-1.10;99.90
13336;DHT22;6737;51.480;11.962;2023-03-01T07:50:22;-1.00;99.90
13336;DHT22;6737;51.480;11.962;2023-03-01T07:52:49;-0.80;99.90
13336;DHT22;6737;51.480;11.962;2023-03-01T07:55:16;-0.80;99.90
13336;DHT22;6737;51.480;11.962;2023-03-01T07:57:42;-0.40;99.90
13336;DHT22;6737;51.480;11.962;2023-03-01T08:00:10;-0.10;99.90
13336;DHT22;6737;51.480;11.962;2023-03-01T08:02:37;0.00;99.90
13336;DHT22;6737;51.480;11.962;2023-03-01T08:05:03;0.20;99.90
13336;DHT22;6737;51.480;11.962;2023-03-01T08:07:29;0.30;99.90
13336;DHT22;6737;51.480;11.962;2023-03-01T08:09:55;0.50;99.90
13336;DHT22;6737;51.480;11.962;2023-03-01T08:12:20;0.50;99.90
13336;DHT22;6737;51.480;11.962;2023-03-01T08:14:46;0.70;99.90
13336;DHT22;6737;51.480;11.962;2023-03-01T08:17:15;0.80;99.90
13336;DHT22;6737;51.480;11.962;2023-03-01T08:19:42;0.70;99.90
13336;DHT22;6737;51.480;11.962;2023-03-01T08:22:07;0.70;99.90
13336;DHT22;6737;51.480;11.962;2023-03-01T08:24:33;0.80;99.90
13336;DHT22;6737;51.480;11.962;2023-03-01T08:26:59;0.90;99.90
13336;DHT22;6737;51.480;11.962;2023-03-01T08:29:25;1.00;99.90
13336;DHT22;6737;51.480;11.962;2023-03-01T08:31:51;1.20;99.90
13336;DHT22;6737;51.480;11.962;2023-03-01T08:34:18;1.20;99.90
13336;DHT22;6737;51.480;11.962;2023-03-01T08:36:46;1.30;99.90
13336;DHT22;6737;51.480;11.962;2023-03-01T08:39:14;1.40;99.90
13336;DHT22;6737;51.480;11.962;2023-03-01T08:41:40;1.50;99.90
13336;DHT22;6737;51.480;11.962;2023-03-01T08:44:06;1.40;99.90
13336;DHT22;6737;51.480;11.962;2023-03-01T08:46:40;1.50;99.90
13336;DHT22;6737;51.480;11.962;2023-03-01T08:49:08;1.60;99.90
13336;DHT22;6737;51.480;11.962;2023-03-01T08:51:34;1.80;99.90
13336;DHT22;6737;51.480;11.962;2023-03-01T08:54:04;1.80;99.90
13336;DHT22;6737;51.480;11.962;2023-03-01T08:56:30;1.90;99.90
13336;DHT22;6737;51.480;11.962;2023-03-01T08:58:55;1.90;99.90
13336;DHT22;6737;51.480;11.962;2023-03-01T09:01:21;2.10;99.90
13336;DHT22;6737;51.480;11.962;2023-03-01T09:03:47;2.10;99.90
13336;DHT22;6737;51.480;11.962;2023-03-01T09:06:14;2.00;99.90
13336;DHT22;6737;51.480;11.962;2023-03-01T09:08:46;2.10;99.90
13336;DHT22;6737;51.480;11.962;2023-03-01T09:11:16;2.30;99.90
13336;DHT22;6737;51.480;11.962;2023-03-01T09:13:47;2.20;99.90
13336;DHT22;6737;51.480;11.962;2023-03-01T09:16:15;2.40;99.90
13336;DHT22;6737;51.480;11.962;2023-03-01T09:18:43;2.50;99.90
13336;DHT22;6737;51.480;11.962;2023-03-01T09:21:12;2.50;99.90
13336;DHT22;6737;51.480;11.962;2023-03-01T09:23:41;2.50;99.90
13336;DHT22;6737;51.480;11.962;2023-03-01T09:26:09;2.50;99.90
13336;DHT22;6737;51.480;11.962;2023-03-01T09:28:37;2.60;99.90
13336;DHT22;6737;51.480;11.962;2023-03-01T09:31:03;2.50;99.90
13336;DHT22;6737;51.480;11.962;2023-03-01T09:33:31;2.60;99.90
13336;DHT22;6737;51.480;11.962;2023-03-01T09:36:03;2.70;99.90
13336;DHT22;6737;51.480;11.962;2023-03-01T09:38:30;2.80;99.90
13336;DHT22;6737;51.480;11.962;2023-03-01T09:40:56;2.70;99.90
13336;DHT22;6737;51.480;11.962;2023-03-01T09:43:27;2.80;99.90
13336;DHT22;6737;51.480;11.962;2023-03-01T09:45:59;2.90;99.90
13336;DHT22;6737;51.480;11.962;2023-03-01T09:48:27;3.00;99.90
13336;DHT22;6737;51.480;11.962;2023-03-01T09:50:56;3.20;99.90
13336;DHT22;6737;51.480;11.962;2023-03-01T09:53:31;3.30;99.90
13336;DHT22;6737;51.480;11.962;2023-03-01T09:56:02;3.50;99.90
13336;DHT22;6737;51.480;11.962;2023-03-01T10:09:37;3.60;99.90
13336;DHT22;6737;51.480;11.962;2023-03-01T10:12:15;3.70;99.90
13336;DHT22;6737;51.480;11.962;2023-03-01T10:17:56;3.80;99.90
13336;DHT22;6737;51.480;11.962;2023-03-01T10:20:25;3.80;99.90
13336;DHT22;6737;51.480;11.962;2023-03-01T10:22:52;3.70;99.90
13336;DHT22;6737;51.480;11.962;2023-03-01T10:28:01;3.70;99.90
13336;DHT22;6737;51.480;11.962;2023-03-01T10:30:39;3.80;99.90
13336;DHT22;6737;51.480;11.962;2023-03-01T10:33:37;3.70;99.90
13336;DHT22;6737;51.480;11.962;2023-03-01T10:36:03;3.70;99.90
13336;DHT22;6737;51.480;11.962;2023-03-01T10:38:31;3.70;99.90
13336;DHT22;6737;51.480;11.962;2023-03-01T10:41:12;3.80;99.90
13336;DHT22;6737;51.480;11.962;2023-03-01T10:43:50;3.90;99.90
13336;DHT22;6737;51.480;11.962;2023-03-01T10:46:24;4.00;99.90
13336;DHT22;6737;51.480;11.962;2023-03-01T10:51:46;3.80;99.90
13336;DHT22;6737;51.480;11.962;2023-03-01T10:54:31;3.80;99.90
13336;DHT22;6737;51.480;11.962;2023-03-01T10:57:01;3.80;99.90
13336;DHT22;6737;51.480;11.962;2023-03-01T10:59:31;4.00;99.90
13336;DHT22;6737;51.480;11.962;2023-03-01T11:04:29;4.10;99.90
13336;DHT22;6737;51.480;11.962;2023-03-01T11:06:59;4.10;99.90
13336;DHT22;6737;51.480;11.962;2023-03-01T11:09:25;4.20;99.90
13336;DHT22;6737;51.480;11.962;2023-03-01T11:12:08;4.30;99.90
13336;DHT22;6737;51.480;11.962;2023-03-01T11:14:53;4.30;99.90
13336;DHT22;6737;51.480;11.962;2023-03-01T11:17:28;4.30;99.90
13336;DHT22;6737;51.480;11.962;2023-03-01T11:22:55;4.60;99.90
13336;DHT22;6737;51.480;11.962;2023-03-01T11:25:27;4.50;99.90
13336;DHT22;6737;51.480;11.962;2023-03-01T11:27:54;4.50;99.90
13336;DHT22;6737;51.480;11.962;2023-03-01T11:30:32;4.60;99.90
13336;DHT22;6737;51.480;11.962;2023-03-01T11:33:13;4.70;99.90
13336;DHT22;6737;51.480;11.962;2023-03-01T11:35:47;4.80;99.90
13336;DHT22;6737;51.480;11.962;2023-03-01T11:38:23;4.80;99.90
13336;DHT22;6737;51.480;11.962;2023-03-01T11:41:00;4.80;99.90
13336;DHT22;6737;51.480;11.962;2023-03-01T11:44:00;4.70;99.90
13336;DHT22;6737;51.480;11.962;2023-03-01T11:57:20;4.80;99.90
13336;DHT22;6737;51.480;11.962;2023-03-01T12:00:34;5.00;99.90
13336;DHT22;6737;51.480;11.962;2023-03-01T12:05:47;5.00;99.90
13336;DHT22;6737;51.480;11.962;2023-03-01T12:11:19;5.00;99.90
13336;DHT22;6737;51.480;11.962;2023-03-01T12:34:47;5.30;99.90
13336;DHT22;6737;51.480;11.962;2023-03-01T12:40:16;5.30;99.90
13336;DHT22;6737;51.480;11.962;2023-03-01T12:43:07;5.30;99.90
13336;DHT22;6737;51.480;11.962;2023-03-01T12:46:32;5.30;99.90
13336;DHT22;6737;51.480;11.962;2023-03-01T12:48:55;5.30;99.90
13336;DHT22;6737;51.480;11.962;2023-03-01T12:51:26;5.50;99.90
13336;DHT22;6737;51.480;11.962;2023-03-01T12:53:55;5.50;99.90
13336;DHT22;6737;51.480;11.962;2023-03-01T12:56:25;5.50;99.90
13336;DHT22;6737;51.480;11.962;2023-03-01T12:59:15;5.50;99.90
13336;DHT22;6737;51.480;11.962;2023-03-01T13:04:21;5.40;99.90
13336;DHT22;6737;51.480;11.962;2023-03-01T13:11:56;5.50;99.80
13336;DHT22;6737;51.480;11.962;2023-03-01T13:16:49;5.70;98.40
13336;DHT22;6737;51.480;11.962;2023-03-01T13:19:16;5.70;98.40
13336;DHT22;6737;51.480;11.962;2023-03-01T13:21:45;5.60;98.10
13336;DHT22;6737;51.480;11.962;2023-03-01T13:24:38;5.60;97.50
13336;DHT22;6737;51.480;11.962;2023-03-01T13:29:52;5.60;97.70
13336;DHT22;6737;51.480;11.962;2023-03-01T13:32:25;5.60;98.00
13336;DHT22;6737;51.480;11.962;2023-03-01T13:37:45;5.90;96.90
13336;DHT22;6737;51.480;11.962;2023-03-01T13:42:48;5.90;97.20
13336;DHT22;6737;51.480;11.962;2023-03-01T13:45:19;5.90;97.00
13336;DHT22;6737;51.480;11.962;2023-03-01T13:47:46;5.80;97.60
13336;DHT22;6737;51.480;11.962;2023-03-01T13:50:27;5.80;98.60
13336;DHT22;6737;51.480;11.962;2023-03-01T13:53:02;5.80;98.40
13336;DHT22;6737;51.480;11.962;2023-03-01T13:55:52;5.90;97.70
13336;DHT22;6737;51.480;11.962;2023-03-01T13:58:29;5.90;98.00
13336;DHT22;6737;51.480;11.962;2023-03-01T14:00:58;5.90;97.70
13336;DHT22;6737;51.480;11.962;2023-03-01T14:03:25;5.90;98.40
13336;DHT22;6737;51.480;11.962;2023-03-01T14:06:00;6.00;98.40
13336;DHT22;6737;51.480;11.962;2023-03-01T14:08:28;5.90;98.50
13336;DHT22;6737;51.480;11.962;2023-03-01T14:11:13;5.90;96.90
13336;DHT22;6737;51.480;11.962;2023-03-01T14:19:24;5.80;97.10
13336;DHT22;6737;51.480;11.962;2023-03-01T14:22:32;5.70;97.70
13336;DHT22;6737;51.480;11.962;2023-03-01T14:27:56;6.00;96.90
13336;DHT22;6737;51.480;11.962;2023-03-01T14:30:26;6.10;97.10
13336;DHT22;6737;51.480;11.962;2023-03-01T14:32:54;6.10;96.30
13336;DHT22;6737;51.480;11.962;2023-03-01T14:35:29;6.10;96.40
13336;DHT22;6737;51.480;11.962;2023-03-01T14:37:55;6.20;96.20
13336;DHT22;6737;51.480;11.962;2023-03-01T14:40:41;6.20;97.00
13336;DHT22;6737;51.480;11.962;2023-03-01T14:43:10;6.20;96.30
13336;DHT22;6737;51.480;11.962;2023-03-01T14:45:37;6.20;96.20
13336;DHT22;6737;51.480;11.962;2023-03-01T14:48:06;6.10;96.70
13336;DHT22;6737;51.480;11.962;2023-03-01T14:50:41;6.20;95.80
13336;DHT22;6737;51.480;11.962;2023-03-01T14:53:36;6.20;95.60
13336;DHT22;6737;51.480;11.962;2023-03-01T14:56:02;6.30;95.30
13336;DHT22;6737;51.480;11.962;2023-03-01T14:58:28;6.20;95.40
13336;DHT22;6737;51.480;11.962;2023-03-01T15:01:00;6.40;95.10
13336;DHT22;6737;51.480;11.962;2023-03-01T15:03:31;6.30;94.80
13336;DHT22;6737;51.480;11.962;2023-03-01T15:06:01;6.30;95.30
13336;DHT22;6737;51.480;11.962;2023-03-01T15:08:28;6.20;96.10
13336;DHT22;6737;51.480;11.962;2023-03-01T15:13:44;6.10;95.80
13336;DHT22;6737;51.480;11.962;2023-03-01T15:16:18;6.00;96.70
13336;DHT22;6737;51.480;11.962;2023-03-01T15:19:15;5.90;96.70
13336;DHT22;6737;51.480;11.962;2023-03-01T15:21:44;6.10;96.20
13336;DHT22;6737;51.480;11.962;2023-03-01T15:27:13;6.00;96.00
13336;DHT22;6737;51.480;11.962;2023-03-01T15:30:00;6.00;96.70
13336;DHT22;6737;51.480;11.962;2023-03-01T15:32:33;6.00;97.20
13336;DHT22;6737;51.480;11.962;2023-03-01T15:35:09;6.00;96.80
13336;DHT22;6737;51.480;11.962;2023-03-01T15:37:48;5.90;96.60
13336;DHT22;6737;51.480;11.962;2023-03-01T15:40:27;5.90;97.00
13336;DHT22;6737;51.480;11.962;2023-03-01T15:43:00;5.80;97.20
13336;DHT22;6737;51.480;11.962;2023-03-01T15:45:28;5.80;97.20
13336;DHT22;6737;51.480;11.962;2023-03-01T15:48:13;5.70;97.50
13336;DHT22;6737;51.480;11.962;2023-03-01T15:50:41;5.70;97.90
13336;DHT22;6737;51.480;11.962;2023-03-01T15:53:13;5.80;98.30
13336;DHT22;6737;51.480;11.962;2023-03-01T15:55:41;5.70;98.80
13336;DHT22;6737;51.480;11.962;2023-03-01T15:58:14;5.60;98.90
13336;DHT22;6737;51.480;11.962;2023-03-01T16:00:41;5.70;98.40
13336;DHT22;6737;51.480;11.962;2023-03-01T16:03:09;5.90;98.10
13336;DHT22;6737;51.480;11.962;2023-03-01T16:05:38;5.90;98.30
13336;DHT22;6737;51.480;11.962;2023-03-01T16:08:05;5.80;98.80
13336;DHT22;6737;51.480;11.962;2023-03-01T16:10:32;5.70;98.80
13336;DHT22;6737;51.480;11.962;2023-03-01T16:12:59;5.70;98.80
13336;DHT22;6737;51.480;11.962;2023-03-01T16:15:32;5.60;99.20
13336;DHT22;6737;51.480;11.962;2023-03-01T16:18:00;5.60;99.30
13336;DHT22;6737;51.480;11.962;2023-03-01T16:20:27;5.60;99.20
13336;DHT22;6737;51.480;11.962;2023-03-01T16:22:53;5.50;99.50
13336;DHT22;6737;51.480;11.962;2023-03-01T16:25:23;5.40;99.30
13336;DHT22;6737;51.480;11.962;2023-03-01T16:27:50;5.30;98.90
13336;DHT22;6737;51.480;11.962;2023-03-01T16:30:19;5.30;98.90
13336;DHT22;6737;51.480;11.962;2023-03-01T16:32:46;5.30;98.30
13336;DHT22;6737;51.480;11.962;2023-03-01T16:35:15;5.20;98.80
13336;DHT22;6737;51.480;11.962;2023-03-01T16:37:41;5.20;98.50
13336;DHT22;6737;51.480;11.962;2023-03-01T16:40:22;5.30;98.40
13336;DHT22;6737;51.480;11.962;2023-03-01T16:42:49;5.20;98.70
13336;DHT22;6737;51.480;11.962;2023-03-01T16:45:16;5.10;99.00
13336;DHT22;6737;51.480;11.962;2023-03-01T16:47:42;5.00;98.90
13336;DHT22;6737;51.480;11.962;2023-03-01T16:50:08;5.00;99.00
13336;DHT22;6737;51.480;11.962;2023-03-01T16:52:34;4.90;99.10
13336;DHT22;6737;51.480;11.962;2023-03-01T16:55:00;4.80;99.20
13336;DHT22;6737;51.480;11.962;2023-03-01T16:57:25;4.70;99.90
13336;DHT22;6737;51.480;11.962;2023-03-01T16:59:52;4.70;99.90
13336;DHT22;6737;51.480;11.962;2023-03-01T17:02:20;4.70;99.90
13336;DHT22;6737;51.480;11.962;2023-03-01T17:04:53;4.70;99.90
13336;DHT22;6737;51.480;11.962;2023-03-01T17:07:19;4.70;99.90
13336;DHT22;6737;51.480;11.962;2023-03-01T17:09:45;4.70;99.90
13336;DHT22;6737;51.480;11.962;2023-03-01T17:12:15;4.70;99.90
13336;DHT22;6737;51.480;11.962;2023-03-01T17:14:42;4.70;99.90
13336;DHT22;6737;51.480;11.962;2023-03-01T17:17:09;4.70;99.90
13336;DHT22;6737;51.480;11.962;2023-03-01T17:19:36;4.60;99.90
13336;DHT22;6737;51.480;11.962;2023-03-01T17:22:07;4.60;99.90
13336;DHT22;6737;51.480;11.962;2023-03-01T17:24:38;4.40;99.90
13336;DHT22;6737;51.480;11.962;2023-03-01T17:27:05;4.30;99.90
13336;DHT22;6737;51.480;11.962;2023-03-01T17:29:31;4.20;99.90
13336;DHT22;6737;51.480;11.962;2023-03-01T17:31:57;4.10;99.90
13336;DHT22;6737;51.480;11.962;2023-03-01T17:34:23;3.90;99.90
13336;DHT22;6737;51.480;11.962;2023-03-01T17:36:49;3.80;99.90
13336;DHT22;6737;51.480;11.962;2023-03-01T17:39:17;3.80;99.90
13336;DHT22;6737;51.480;11.962;2023-03-01T17:41:53;3.70;99.90
13336;DHT22;6737;51.480;11.962;2023-03-01T17:44:20;3.70;99.90
13336;DHT22;6737;51.480;11.962;2023-03-01T17:46:46;3.90;99.90
13336;DHT22;6737;51.480;11.962;2023-03-01T17:49:11;4.00;99.90